createdAt,value
2018-08-30T00:00:38.523Z,14.20
2018-08-30T00:01:38.555Z,16.30
2018-08-30T00:02:38.527Z,15.40
2018-08-30T00:03:38.527Z,15.90
2018-08-30T00:04:38.528Z,16.80
2018-08-30T00:05:38.531Z,15.00
2018-08-30T00:06:38.561Z,16.10
2018-08-30T00:07:38.560Z,15.90
2018-08-30T00:08:38.528Z,15.60
2018-08-30T00:09:38.534Z,16.30
2018-08-30T00:10:38.538Z,16.30
2018-08-30T00:11:38.540Z,14.80
2018-08-30T00:12:38.561Z,15.40
2018-08-30T00:13:38.542Z,17.30
2018-08-30T00:14:38.542Z,15.20
2018-08-30T00:15:38.544Z,15.40
2018-08-30T00:16:38.539Z,17.00
2018-08-30T00:17:38.570Z,15.90
2018-08-30T00:18:38.548Z,16.40
2018-08-30T00:19:38.548Z,17.60
2018-08-30T00:20:38.556Z,14.90
2018-08-30T00:21:38.547Z,16.20
2018-08-30T00:22:38.580Z,14.70
2018-08-30T00:23:38.554Z,16.00
2018-08-30T00:24:38.554Z,16.30
2018-08-30T00:25:38.561Z,14.90
2018-08-30T00:26:38.602Z,14.90
2018-08-30T00:27:38.576Z,16.90
2018-08-30T00:28:38.559Z,16.40
2018-08-30T00:29:38.560Z,16.60
2018-08-30T00:30:38.562Z,16.20
2018-08-30T00:31:38.561Z,16.90
2018-08-30T00:32:38.592Z,17.50
2018-08-30T00:33:38.562Z,16.00
2018-08-30T00:34:38.568Z,15.60
2018-08-30T00:35:38.567Z,15.70
2018-08-30T00:36:38.567Z,15.80
2018-08-30T00:37:38.591Z,15.60
2018-08-30T00:38:38.596Z,16.70
2018-08-30T00:39:38.577Z,14.10
2018-08-30T00:40:38.573Z,16.20
2018-08-30T00:41:38.572Z,16.60
2018-08-30T00:42:38.572Z,15.10
2018-08-30T00:43:38.603Z,15.10
2018-08-30T00:44:38.577Z,16.20
2018-08-30T00:45:38.577Z,14.50
2018-08-30T00:46:38.577Z,15.50
2018-08-30T00:47:38.583Z,17.70
2018-08-30T00:48:38.610Z,16.10
2018-08-30T00:49:38.582Z,15.20
2018-08-30T00:50:38.581Z,15.70
2018-08-30T00:51:38.581Z,14.90
2018-08-30T00:52:38.610Z,16.60
2018-08-30T00:53:38.587Z,14.50
2018-08-30T00:54:38.590Z,15.50
2018-08-30T00:55:38.588Z,15.80
2018-08-30T00:56:38.587Z,13.80
2018-08-30T00:57:38.620Z,17.40
2018-08-30T00:58:38.600Z,14.60
2018-08-30T00:59:38.610Z,14.40
2018-08-30T01:00:38.597Z,15.10
2018-08-30T01:01:38.596Z,15.90
2018-08-30T01:02:38.625Z,16.60
2018-08-30T01:03:38.601Z,15.30
2018-08-30T01:04:38.601Z,16.00
2018-08-30T01:05:38.597Z,14.50
2018-08-30T01:06:38.606Z,14.00
2018-08-30T01:07:38.634Z,15.10
2018-08-30T01:08:38.605Z,14.90
2018-08-30T01:09:38.606Z,15.30
2018-08-30T01:10:38.609Z,13.60
2018-08-30T01:11:38.610Z,13.30
2018-08-30T01:12:38.638Z,15.50
2018-08-30T01:13:38.645Z,14.10
2018-08-30T01:14:38.617Z,14.70
2018-08-30T01:15:38.612Z,14.80
2018-08-30T01:16:38.617Z,14.20
2018-08-30T01:17:38.621Z,13.10
2018-08-30T01:18:38.652Z,14.00
2018-08-30T01:19:38.649Z,14.20
2018-08-30T01:20:38.620Z,14.80
2018-08-30T01:21:38.625Z,12.90
2018-08-30T01:22:38.625Z,12.40
2018-08-30T01:23:38.625Z,15.40
2018-08-30T01:24:38.653Z,14.00
2018-08-30T01:25:38.634Z,14.40
2018-08-30T01:26:38.686Z,13.50
2018-08-30T01:27:38.629Z,13.60
2018-08-30T01:28:38.634Z,11.90
2018-08-30T01:29:38.662Z,12.70
2018-08-30T01:30:38.636Z,12.50
2018-08-30T01:31:38.640Z,13.50
2018-08-30T01:32:38.639Z,13.40
2018-08-30T01:33:38.638Z,12.40
2018-08-30T01:34:38.667Z,11.30
2018-08-30T01:35:38.650Z,13.70
2018-08-30T01:36:38.644Z,12.50
2018-08-30T01:37:38.644Z,12.10
2018-08-30T01:38:38.648Z,11.90
2018-08-30T01:39:38.677Z,12.10
2018-08-30T01:40:38.649Z,12.70
2018-08-30T01:41:38.655Z,12.80
2018-08-30T01:42:38.653Z,12.50
2018-08-30T01:43:38.657Z,13.00
2018-08-30T01:44:38.686Z,12.00
2018-08-30T01:45:38.664Z,13.60
2018-08-30T01:46:38.662Z,13.30
2018-08-30T01:47:38.668Z,13.10
2018-08-30T01:48:38.666Z,11.50
2018-08-30T01:49:38.695Z,11.90
2018-08-30T01:50:38.666Z,12.20
2018-08-30T01:51:38.669Z,13.80
2018-08-30T01:52:38.675Z,13.00
2018-08-30T01:53:38.671Z,12.90
2018-08-30T01:54:38.699Z,12.50
2018-08-30T01:55:38.676Z,13.40
2018-08-30T01:56:38.655Z,15.20
2018-08-30T01:57:38.661Z,14.00
2018-08-30T01:58:38.663Z,14.40
2018-08-30T01:59:38.704Z,13.60
2018-08-30T02:00:38.670Z,13.90
2018-08-30T02:01:38.669Z,13.30
2018-08-30T02:02:38.673Z,12.30
2018-08-30T02:03:38.669Z,13.00
2018-08-30T02:04:38.710Z,13.90
2018-08-30T02:05:38.678Z,11.80
2018-08-30T02:06:38.741Z,13.50
2018-08-30T02:07:38.684Z,11.50
2018-08-30T02:08:38.682Z,13.80
2018-08-30T02:09:38.726Z,11.90
2018-08-30T02:10:38.689Z,12.30
2018-08-30T02:11:38.691Z,13.90
2018-08-30T02:12:38.689Z,12.10
2018-08-30T02:13:38.690Z,11.20
2018-08-30T02:14:38.736Z,12.80
2018-08-30T02:15:38.704Z,13.80
2018-08-30T02:16:38.709Z,12.40
2018-08-30T02:17:38.706Z,12.80
2018-08-30T02:18:38.698Z,13.20
2018-08-30T02:19:38.738Z,14.40
2018-08-30T02:20:38.705Z,13.80
2018-08-30T02:21:38.706Z,11.30
2018-08-30T02:22:38.710Z,13.20
2018-08-30T02:23:38.748Z,12.70
2018-08-30T02:24:38.716Z,13.70
2018-08-30T02:25:38.711Z,12.30
2018-08-30T02:26:38.775Z,13.60
2018-08-30T02:27:38.724Z,10.40
2018-08-30T02:28:38.759Z,13.20
2018-08-30T02:29:38.727Z,12.10
2018-08-30T02:30:38.721Z,13.80
2018-08-30T02:31:38.727Z,14.80
2018-08-30T02:32:38.732Z,14.40
2018-08-30T02:33:38.775Z,12.60
2018-08-30T02:34:38.733Z,11.70
2018-08-30T02:35:38.732Z,14.90
2018-08-30T02:36:38.735Z,13.40
2018-08-30T02:37:38.737Z,12.40
2018-08-30T02:38:38.777Z,11.20
2018-08-30T02:39:38.741Z,11.80
2018-08-30T02:40:38.756Z,13.30
2018-08-30T02:41:38.749Z,13.00
2018-08-30T02:42:38.749Z,12.70
2018-08-30T02:43:38.787Z,12.70
2018-08-30T02:44:38.754Z,13.30
2018-08-30T02:45:38.751Z,12.90
2018-08-30T02:46:38.751Z,12.80
2018-08-30T02:47:38.755Z,11.20
2018-08-30T02:48:38.800Z,14.40
2018-08-30T02:49:38.764Z,13.60
2018-08-30T02:50:38.768Z,12.30
2018-08-30T02:51:38.765Z,14.40
2018-08-30T02:52:38.772Z,12.70
2018-08-30T02:53:38.808Z,12.80
2018-08-30T02:54:38.772Z,11.80
2018-08-30T02:55:38.777Z,11.50
2018-08-30T02:56:38.779Z,13.60
2018-08-30T02:57:38.784Z,13.90
2018-08-30T02:58:38.821Z,13.40
2018-08-30T02:59:38.786Z,14.10
2018-08-30T03:00:38.781Z,14.40
2018-08-30T03:01:38.789Z,13.90
2018-08-30T03:02:38.790Z,12.30
2018-08-30T03:03:38.831Z,12.70
2018-08-30T03:04:38.796Z,13.30
2018-08-30T03:05:38.792Z,12.70
2018-08-30T03:06:38.799Z,12.50
2018-08-30T03:07:38.796Z,12.30
2018-08-30T03:08:38.835Z,14.20
2018-08-30T03:09:38.803Z,12.90
2018-08-30T03:10:38.803Z,13.70
2018-08-30T03:11:38.804Z,16.10
2018-08-30T03:12:38.812Z,17.40
2018-08-30T03:13:38.852Z,14.20
2018-08-30T03:14:38.810Z,17.10
2018-08-30T03:15:38.813Z,18.20
2018-08-30T03:16:38.822Z,18.50
2018-08-30T03:17:38.818Z,16.10
2018-08-30T03:18:38.855Z,20.10
2018-08-30T03:19:38.858Z,19.20
2018-08-30T03:20:38.822Z,18.90
2018-08-30T03:21:38.830Z,19.50
2018-08-30T03:22:38.822Z,22.80
2018-08-30T03:23:38.827Z,20.40
2018-08-30T03:24:38.867Z,20.30
2018-08-30T03:25:38.831Z,21.50
2018-08-30T03:26:38.827Z,23.10
2018-08-30T03:27:38.826Z,20.60
2018-08-30T03:28:38.832Z,24.20
2018-08-30T03:29:38.867Z,22.80
2018-08-30T03:30:38.866Z,23.60
2018-08-30T03:31:38.834Z,22.60
2018-08-30T03:32:38.835Z,23.10
2018-08-30T03:33:38.838Z,22.50
2018-08-30T03:34:38.880Z,22.40
2018-08-30T03:35:38.873Z,23.10
2018-08-30T03:36:38.842Z,23.50
2018-08-30T03:37:38.849Z,24.60
2018-08-30T03:38:38.843Z,23.60
2018-08-30T03:39:38.864Z,21.90
2018-08-30T03:40:38.901Z,20.80
2018-08-30T03:41:38.852Z,23.20
2018-08-30T03:42:38.873Z,21.60
2018-08-30T03:43:38.859Z,22.20
2018-08-30T03:44:38.855Z,18.90
2018-08-30T03:45:38.912Z,21.20
2018-08-30T03:46:38.890Z,21.30
2018-08-30T03:47:38.855Z,21.80
2018-08-30T03:48:38.851Z,22.00
2018-08-30T03:49:38.860Z,21.00
2018-08-30T03:50:38.892Z,20.60
2018-08-30T03:51:38.902Z,20.70
2018-08-30T03:52:38.860Z,20.10
2018-08-30T03:53:38.860Z,22.80
2018-08-30T03:54:38.861Z,21.80
2018-08-30T03:55:44.068Z,23.60
2018-08-30T03:56:38.903Z,23.10
2018-08-30T03:57:38.869Z,22.10
2018-08-30T03:58:38.867Z,22.60
2018-08-30T03:59:38.869Z,24.10
2018-08-30T04:00:38.863Z,22.30
2018-08-30T04:01:38.906Z,21.10
2018-08-30T04:02:38.874Z,21.60
2018-08-30T04:03:38.868Z,21.20
2018-08-30T04:04:38.916Z,23.90
2018-08-30T04:05:38.919Z,19.50
2018-08-30T04:06:38.915Z,21.90
2018-08-30T04:07:38.877Z,21.20
2018-08-30T04:08:38.911Z,22.40
2018-08-30T04:09:38.875Z,22.20
2018-08-30T04:10:38.884Z,20.90
2018-08-30T04:11:38.928Z,23.70
2018-08-30T04:12:38.882Z,21.80
2018-08-30T04:13:38.919Z,24.60
2018-08-30T04:14:38.881Z,24.20
2018-08-30T04:15:38.882Z,21.90
2018-08-30T04:16:38.929Z,21.40
2018-08-30T04:17:38.893Z,19.80
2018-08-30T04:18:38.886Z,21.70
2018-08-30T04:19:41.904Z,22.70
2018-08-30T04:20:38.927Z,21.10
2018-08-30T04:21:38.890Z,21.40
2018-08-30T04:22:38.897Z,22.90
2018-08-30T04:23:38.890Z,22.70
2018-08-30T04:24:40.897Z,23.20
2018-08-30T04:25:39.061Z,21.10
2018-08-30T04:26:47.901Z,23.70
2018-08-30T04:27:40.891Z,21.10
2018-08-30T04:28:40.016Z,23.70
2018-08-30T04:29:38.896Z,20.30
2018-08-30T04:30:38.946Z,21.30
2018-08-30T04:31:40.444Z,20.40
2018-08-30T04:32:38.904Z,21.90
2018-08-30T04:33:38.905Z,21.20
2018-08-30T04:34:38.905Z,25.90
2018-08-30T04:35:38.941Z,24.90
2018-08-30T04:36:38.905Z,26.60
2018-08-30T04:37:38.910Z,21.00
2018-08-30T04:38:38.910Z,21.80
2018-08-30T04:39:38.908Z,23.10
2018-08-30T04:40:39.059Z,21.50
2018-08-30T04:41:38.914Z,21.20
2018-08-30T04:42:38.993Z,21.20
2018-08-30T04:43:38.939Z,23.90
2018-08-30T04:44:38.914Z,23.20
2018-08-30T04:45:38.963Z,21.60
2018-08-30T04:46:38.918Z,23.20
2018-08-30T04:47:38.991Z,21.10
2018-08-30T04:48:38.959Z,20.00
2018-08-30T04:49:38.921Z,20.50
2018-08-30T04:50:39.013Z,21.60
2018-08-30T04:51:38.965Z,22.10
2018-08-30T04:52:38.926Z,20.00
2018-08-30T04:53:38.929Z,21.40
2018-08-30T04:54:38.932Z,21.50
2018-08-30T04:55:39.356Z,22.80
2018-08-30T04:56:38.978Z,27.30
2018-08-30T04:57:38.938Z,33.10
2018-08-30T04:58:38.933Z,32.90
2018-08-30T04:59:38.944Z,29.20
2018-08-30T05:00:38.974Z,36.10
2018-08-30T05:01:38.947Z,31.40
2018-08-30T05:02:38.935Z,38.00
2018-08-30T05:03:38.943Z,40.00
2018-08-30T05:04:38.947Z,30.90
2018-08-30T05:05:38.976Z,29.40
2018-08-30T05:06:38.944Z,21.50
2018-08-30T05:07:39.014Z,35.20
2018-08-30T05:08:38.951Z,34.60
2018-08-30T05:09:38.951Z,30.20
2018-08-30T05:10:38.993Z,29.40
2018-08-30T05:11:38.953Z,20.00
2018-08-30T05:12:38.958Z,18.20
2018-08-30T05:13:38.959Z,14.00
2018-08-30T05:14:38.953Z,19.00
2018-08-30T05:15:38.991Z,21.10
2018-08-30T05:16:39.043Z,19.90
2018-08-30T05:17:38.954Z,18.40
2018-08-30T05:18:38.962Z,18.30
2018-08-30T05:19:38.959Z,21.30
2018-08-30T05:20:39.009Z,21.40
2018-08-30T05:21:38.965Z,25.80
2018-08-30T05:22:38.963Z,29.90
2018-08-30T05:23:38.960Z,29.40
2018-08-30T05:24:38.961Z,29.80
2018-08-30T05:25:39.000Z,35.40
2018-08-30T05:26:38.964Z,28.90
2018-08-30T05:27:39.071Z,29.90
2018-08-30T05:28:38.964Z,29.50
2018-08-30T05:29:39.012Z,31.30
2018-08-30T05:30:39.009Z,32.30
2018-08-30T05:31:38.969Z,29.80
2018-08-30T05:32:38.970Z,33.80
2018-08-30T05:33:38.970Z,34.70
2018-08-30T05:34:38.966Z,33.30
2018-08-30T05:35:39.050Z,33.70
2018-08-30T05:36:38.980Z,32.40
2018-08-30T05:37:38.971Z,33.90
2018-08-30T05:38:38.975Z,35.90
2018-08-30T05:39:38.979Z,41.60
2018-08-30T05:40:39.012Z,35.70
2018-08-30T05:41:38.981Z,36.60
2018-08-30T05:42:38.983Z,40.00
2018-08-30T05:43:38.979Z,39.90
2018-08-30T05:44:39.044Z,35.90
2018-08-30T05:45:39.017Z,36.40
2018-08-30T05:46:38.980Z,34.80
2018-08-30T05:47:38.976Z,35.90
2018-08-30T05:48:38.981Z,36.30
2018-08-30T05:49:38.988Z,41.70
2018-08-30T05:50:39.021Z,34.30
2018-08-30T05:51:38.985Z,36.80
2018-08-30T05:52:39.032Z,40.00
2018-08-30T05:53:38.988Z,40.80
2018-08-30T05:54:38.987Z,50.00
2018-08-30T05:55:39.025Z,46.40
2018-08-30T05:56:38.990Z,45.70
2018-08-30T05:57:38.989Z,43.20
2018-08-30T05:58:38.995Z,42.70
2018-08-30T05:59:38.995Z,46.80
2018-08-30T06:00:39.035Z,48.10
2018-08-30T06:01:38.991Z,46.90
2018-08-30T06:02:38.995Z,41.50
2018-08-30T06:03:38.996Z,40.10
2018-08-30T06:04:39.000Z,45.80
2018-08-30T06:05:39.039Z,51.20
2018-08-30T06:06:39.000Z,43.50
2018-08-30T06:07:39.006Z,47.80
2018-08-30T06:08:39.001Z,44.40
2018-08-30T06:09:39.009Z,47.30
2018-08-30T06:10:39.043Z,47.60
2018-08-30T06:11:39.006Z,49.10
2018-08-30T06:12:39.004Z,47.20
2018-08-30T06:13:39.010Z,37.20
2018-08-30T06:14:39.054Z,43.50
2018-08-30T06:15:39.006Z,45.10
2018-08-30T06:16:39.043Z,40.00
2018-08-30T06:17:39.011Z,46.80
2018-08-30T06:18:39.010Z,44.70
2018-08-30T06:19:39.014Z,49.20
2018-08-30T06:20:39.054Z,43.00
2018-08-30T06:21:39.018Z,45.90
2018-08-30T06:22:39.014Z,45.50
2018-08-30T06:23:39.020Z,36.60
2018-08-30T06:24:39.013Z,36.10
2018-08-30T06:25:39.056Z,41.40
2018-08-30T06:26:39.066Z,40.90
2018-08-30T06:27:39.025Z,43.50
2018-08-30T06:28:39.016Z,41.40
2018-08-30T06:29:39.020Z,46.20
2018-08-30T06:30:39.061Z,47.20
2018-08-30T06:31:39.025Z,31.30
2018-08-30T06:32:39.063Z,43.50
2018-08-30T06:33:39.025Z,37.70
2018-08-30T06:34:39.108Z,47.50
2018-08-30T06:35:39.064Z,47.00
2018-08-30T06:36:39.030Z,44.90
2018-08-30T06:37:39.031Z,44.80
2018-08-30T06:38:39.105Z,47.10
2018-08-30T06:39:39.043Z,45.00
2018-08-30T06:40:39.067Z,45.30
2018-08-30T06:41:39.039Z,44.30
2018-08-30T06:42:39.031Z,46.00
2018-08-30T06:43:40.410Z,39.60
2018-08-30T06:44:44.053Z,44.70
2018-08-30T06:45:40.919Z,38.70
2018-08-30T06:46:39.531Z,41.90
2018-08-30T06:47:39.036Z,38.00
2018-08-30T06:48:39.137Z,34.40
2018-08-30T06:49:39.037Z,35.80
2018-08-30T06:50:39.079Z,34.60
2018-08-30T06:51:39.044Z,34.90
2018-08-30T06:52:39.046Z,35.00
2018-08-30T06:53:39.046Z,31.40
2018-08-30T06:54:39.050Z,36.70
2018-08-30T06:55:39.083Z,32.80
2018-08-30T06:56:39.045Z,33.40
2018-08-30T06:57:39.046Z,28.70
2018-08-30T06:58:39.047Z,24.30
2018-08-30T06:59:39.051Z,28.80
2018-08-30T07:00:39.089Z,27.90
2018-08-30T07:01:39.055Z,31.20
2018-08-30T07:02:39.059Z,32.10
2018-08-30T07:03:39.060Z,32.90
2018-08-30T07:04:39.056Z,27.90
2018-08-30T07:05:39.096Z,27.50
2018-08-30T07:06:39.061Z,27.70
2018-08-30T07:07:39.060Z,27.90
2018-08-30T07:08:39.070Z,29.60
2018-08-30T07:09:39.065Z,29.50
2018-08-30T07:10:39.114Z,27.10
2018-08-30T07:11:39.077Z,29.20
2018-08-30T07:12:39.071Z,26.70
2018-08-30T07:13:39.114Z,29.80
2018-08-30T07:14:39.153Z,34.20
2018-08-30T07:15:39.081Z,31.70
2018-08-30T07:16:39.122Z,34.60
2018-08-30T07:17:39.080Z,35.00
2018-08-30T07:18:39.078Z,35.30
2018-08-30T07:19:39.083Z,34.50
2018-08-30T07:20:39.083Z,36.00
2018-08-30T07:21:39.123Z,38.10
2018-08-30T07:22:39.083Z,37.10
2018-08-30T07:23:39.088Z,36.60
2018-08-30T07:24:39.092Z,34.90
2018-08-30T07:25:39.093Z,37.80
2018-08-30T07:26:39.132Z,34.30
2018-08-30T07:27:39.096Z,33.60
2018-08-30T07:28:39.173Z,36.40
2018-08-30T07:29:39.134Z,35.40
2018-08-30T07:30:39.101Z,35.10
2018-08-30T07:31:39.103Z,38.60
2018-08-30T07:32:39.137Z,36.40
2018-08-30T07:33:39.101Z,36.60
2018-08-30T07:34:39.124Z,37.30
2018-08-30T07:35:39.107Z,34.50
2018-08-30T07:36:39.141Z,41.50
2018-08-30T07:37:39.113Z,36.10
2018-08-30T07:38:39.112Z,37.50
2018-08-30T07:39:39.107Z,36.40
2018-08-30T07:40:39.108Z,35.80
2018-08-30T07:41:39.151Z,32.80
2018-08-30T07:42:39.119Z,30.40
2018-08-30T07:43:39.112Z,31.70
2018-08-30T07:44:39.201Z,29.50
2018-08-30T07:45:39.156Z,31.00
2018-08-30T07:46:39.123Z,31.20
2018-08-30T07:47:39.157Z,29.60
2018-08-30T07:48:39.131Z,29.70
2018-08-30T07:49:39.121Z,25.50
2018-08-30T07:50:39.125Z,30.60
2018-08-30T07:51:39.131Z,24.80
2018-08-30T07:52:39.162Z,26.20
2018-08-30T07:53:39.126Z,28.10
2018-08-30T07:54:39.246Z,27.90
2018-08-30T07:55:39.121Z,28.70
2018-08-30T07:56:39.139Z,25.90
2018-08-30T07:57:39.171Z,26.10
2018-08-30T07:58:39.130Z,24.70
2018-08-30T07:59:39.132Z,25.40
2018-08-30T08:00:39.136Z,22.70
2018-08-30T08:01:39.143Z,22.70
2018-08-30T08:02:39.168Z,29.20
2018-08-30T08:03:39.142Z,28.50
2018-08-30T08:04:39.137Z,30.70
2018-08-30T08:05:39.142Z,30.80
2018-08-30T08:06:39.140Z,28.40
2018-08-30T08:07:39.180Z,30.10
2018-08-30T08:08:39.140Z,31.50
2018-08-30T08:09:39.141Z,30.10
2018-08-30T08:10:39.148Z,35.60
2018-08-30T08:11:39.188Z,33.80
2018-08-30T08:12:39.254Z,30.00
2018-08-30T08:13:39.186Z,32.40
2018-08-30T08:14:39.149Z,31.00
2018-08-30T08:15:39.148Z,29.80
2018-08-30T08:16:39.149Z,26.70
2018-08-30T08:17:39.189Z,26.30
2018-08-30T08:18:39.154Z,23.90
2018-08-30T08:19:39.158Z,22.80
2018-08-30T08:20:39.155Z,20.80
2018-08-30T08:21:39.155Z,26.00
2018-08-30T08:22:39.195Z,22.50
2018-08-30T08:23:39.159Z,24.00
2018-08-30T08:24:39.159Z,22.30
2018-08-30T08:25:39.163Z,20.20
2018-08-30T08:26:39.160Z,20.40
2018-08-30T08:27:39.199Z,20.70
2018-08-30T08:28:39.161Z,22.10
2018-08-30T08:29:39.305Z,24.80
2018-08-30T08:30:39.160Z,19.80
2018-08-30T08:31:39.161Z,21.70
2018-08-30T08:32:39.200Z,16.90
2018-08-30T08:33:39.165Z,17.00
2018-08-30T08:34:39.174Z,18.40
2018-08-30T08:35:39.163Z,12.60
2018-08-30T08:36:39.184Z,16.10
2018-08-30T08:37:39.209Z,16.80
2018-08-30T08:38:39.182Z,14.10
2018-08-30T08:39:40.072Z,14.60
2018-08-30T08:40:41.885Z,14.30
2018-08-30T08:41:39.173Z,9.60
2018-08-30T08:42:45.767Z,8.90
2018-08-30T08:43:39.990Z,12.80
2018-08-30T08:44:39.175Z,11.00
2018-08-30T08:45:39.182Z,13.90
2018-08-30T08:46:39.173Z,10.20
2018-08-30T08:47:39.230Z,10.60
2018-08-30T08:48:39.214Z,14.90
2018-08-30T08:49:39.179Z,10.70
2018-08-30T08:50:39.189Z,11.00
2018-08-30T08:51:39.185Z,12.20
2018-08-30T08:52:39.200Z,11.50
2018-08-30T08:53:39.244Z,9.40
2018-08-30T08:54:39.201Z,9.00
2018-08-30T08:55:39.189Z,9.80
2018-08-30T08:56:39.197Z,8.90
2018-08-30T08:57:39.195Z,10.10
2018-08-30T08:58:39.293Z,11.10
2018-08-30T08:59:39.203Z,8.50
2018-08-30T09:00:39.213Z,5.50
2018-08-30T09:01:39.202Z,6.70
2018-08-30T09:02:39.199Z,6.20
2018-08-30T09:03:39.232Z,7.10
2018-08-30T09:04:39.294Z,7.80
2018-08-30T09:05:39.180Z,6.20
2018-08-30T09:06:39.180Z,6.40
2018-08-30T09:07:39.218Z,6.90
2018-08-30T09:08:39.264Z,7.80
2018-08-30T09:09:39.191Z,7.80
2018-08-30T09:10:39.187Z,6.80
2018-08-30T09:11:39.196Z,5.40
2018-08-30T09:12:39.199Z,5.30
2018-08-30T09:13:39.298Z,5.70
2018-08-30T09:14:39.194Z,6.60
2018-08-30T09:15:39.210Z,4.70
2018-08-30T09:16:39.196Z,7.00
2018-08-30T09:17:39.201Z,5.00
2018-08-30T09:18:39.243Z,4.70
2018-08-30T09:19:39.217Z,5.30
2018-08-30T09:20:39.206Z,2.90
2018-08-30T09:21:39.202Z,4.30
2018-08-30T09:22:39.187Z,2.70
2018-08-30T09:23:39.241Z,3.20
2018-08-30T09:24:39.204Z,4.20
2018-08-30T09:25:39.207Z,5.80
2018-08-30T09:26:39.214Z,4.10
2018-08-30T09:27:39.405Z,5.10
2018-08-30T09:28:39.254Z,4.30
2018-08-30T09:29:39.251Z,2.70
2018-08-30T09:30:39.209Z,2.50
2018-08-30T09:31:39.222Z,2.60
2018-08-30T09:32:39.225Z,3.90
2018-08-30T09:33:39.261Z,2.90
2018-08-30T09:34:39.229Z,3.00
2018-08-30T09:35:39.212Z,2.30
2018-08-30T09:36:39.225Z,1.70
2018-08-30T09:37:39.210Z,2.40
2018-08-30T09:38:39.272Z,2.20
2018-08-30T09:39:39.210Z,3.90
2018-08-30T09:40:39.265Z,2.70
2018-08-30T09:41:39.215Z,1.50
2018-08-30T09:42:39.227Z,2.10
2018-08-30T09:43:39.332Z,2.00
2018-08-30T09:44:39.242Z,1.90
2018-08-30T09:45:39.223Z,2.80
2018-08-30T09:46:39.233Z,2.80
2018-08-30T09:47:39.214Z,2.00
2018-08-30T09:48:39.282Z,2.00
2018-08-30T09:49:39.228Z,1.40
2018-08-30T09:50:39.238Z,2.80
2018-08-30T09:51:39.220Z,2.40
2018-08-30T09:52:39.238Z,1.70
2018-08-30T09:53:39.274Z,1.20
2018-08-30T09:54:39.243Z,1.10
2018-08-30T09:55:39.288Z,1.00
2018-08-30T09:56:39.277Z,1.10
2018-08-30T09:57:39.276Z,1.30
2018-08-30T09:58:39.425Z,2.00
2018-08-30T09:59:39.249Z,1.60
2018-08-30T10:00:39.259Z,1.10
2018-08-30T10:01:39.243Z,1.30
2018-08-30T10:02:39.241Z,1.60
2018-08-30T10:03:39.281Z,2.10
2018-08-30T10:04:39.319Z,2.60
2018-08-30T10:05:39.255Z,2.30
2018-08-30T10:06:39.260Z,1.80
2018-08-30T10:07:39.249Z,1.30
2018-08-30T10:08:39.348Z,1.20
2018-08-30T10:09:39.250Z,1.30
2018-08-30T10:10:39.251Z,1.50
2018-08-30T10:11:42.070Z,1.10
2018-08-30T10:12:39.300Z,1.80
2018-08-30T10:13:39.256Z,1.50
2018-08-30T10:14:39.295Z,1.10
2018-08-30T10:15:39.251Z,1.40
2018-08-30T10:16:39.255Z,0.90
2018-08-30T10:17:39.257Z,0.70
2018-08-30T10:18:39.269Z,0.80
2018-08-30T10:19:39.286Z,1.20
2018-08-30T10:20:39.253Z,0.90
2018-08-30T10:21:39.308Z,1.70
2018-08-30T10:22:39.297Z,0.70
2018-08-30T10:23:39.257Z,0.90
2018-08-30T10:24:39.253Z,1.60
2018-08-30T10:25:39.295Z,1.00
2018-08-30T10:26:39.274Z,1.50
2018-08-30T10:27:39.263Z,0.70
2018-08-30T10:28:39.302Z,0.70
2018-08-30T10:29:39.265Z,0.40
2018-08-30T10:30:39.266Z,1.40
2018-08-30T10:31:39.333Z,0.50
2018-08-30T10:32:39.270Z,0.90
2018-08-30T10:33:39.340Z,1.00
2018-08-30T10:34:39.273Z,1.00
2018-08-30T10:35:39.271Z,1.50
2018-08-30T10:36:39.271Z,1.40
2018-08-30T10:37:39.274Z,2.40
2018-08-30T10:38:39.308Z,1.40
2018-08-30T10:39:39.272Z,0.70
2018-08-30T10:40:39.274Z,0.80
2018-08-30T10:41:39.274Z,1.60
2018-08-30T10:42:39.277Z,1.10
2018-08-30T10:43:39.317Z,0.50
2018-08-30T10:44:39.276Z,0.90
2018-08-30T10:45:39.319Z,1.00
2018-08-30T10:46:39.280Z,2.10
2018-08-30T10:47:39.296Z,1.00
2018-08-30T10:48:39.317Z,1.40
2018-08-30T10:49:39.313Z,1.80
2018-08-30T10:50:39.278Z,1.00
2018-08-30T10:51:39.282Z,0.80
2018-08-30T10:52:39.282Z,1.40
2018-08-30T10:53:39.321Z,0.90
2018-08-30T10:54:39.280Z,1.40
2018-08-30T10:55:39.287Z,0.70
2018-08-30T10:56:39.291Z,2.30
2018-08-30T10:57:39.287Z,1.50
2018-08-30T10:58:39.320Z,1.00
2018-08-30T10:59:39.287Z,1.10
2018-08-30T11:00:39.295Z,0.90
2018-08-30T11:01:39.292Z,1.20
2018-08-30T11:02:39.297Z,1.10
2018-08-30T11:03:39.329Z,1.10
2018-08-30T11:04:39.294Z,4.20
2018-08-30T11:05:39.293Z,3.10
2018-08-30T11:06:39.301Z,11.10
2018-08-30T11:07:39.314Z,1.30
2018-08-30T11:08:39.334Z,1.10
2018-08-30T11:09:39.300Z,1.30
2018-08-30T11:10:39.301Z,1.20
2018-08-30T11:11:39.299Z,2.40
2018-08-30T11:12:39.298Z,0.90
2018-08-30T11:13:39.342Z,1.40
2018-08-30T11:14:39.303Z,2.00
2018-08-30T11:15:39.303Z,2.80
2018-08-30T11:16:39.307Z,1.80
2018-08-30T11:17:39.318Z,1.80
2018-08-30T11:18:39.348Z,1.60
2018-08-30T11:19:39.301Z,1.50
2018-08-30T11:20:39.300Z,2.90
2018-08-30T11:21:39.307Z,6.10
2018-08-30T11:22:39.308Z,5.00
2018-08-30T11:23:39.381Z,2.30
2018-08-30T11:24:39.310Z,1.10
2018-08-30T11:25:39.323Z,1.90
2018-08-30T11:26:39.308Z,2.40
2018-08-30T11:27:39.308Z,2.60
2018-08-30T11:28:39.353Z,2.50
2018-08-30T11:29:39.315Z,1.80
2018-08-30T11:30:39.318Z,2.20
2018-08-30T11:31:39.435Z,1.90
2018-08-30T11:32:39.313Z,2.00
2018-08-30T11:33:39.376Z,2.60
2018-08-30T11:34:39.322Z,1.80
2018-08-30T11:35:39.323Z,2.80
2018-08-30T11:36:39.326Z,2.10
2018-08-30T11:37:39.323Z,3.90
2018-08-30T11:38:39.371Z,4.20
2018-08-30T11:39:39.323Z,1.60
2018-08-30T11:40:39.326Z,2.20
2018-08-30T11:41:39.368Z,2.70
2018-08-30T11:42:39.328Z,3.40
2018-08-30T11:43:39.367Z,2.10
2018-08-30T11:44:39.337Z,2.00
2018-08-30T11:45:39.334Z,1.60
2018-08-30T11:46:39.332Z,2.20
2018-08-30T11:47:39.332Z,1.90
2018-08-30T11:48:39.376Z,3.80
2018-08-30T11:49:39.336Z,1.80
2018-08-30T11:50:39.341Z,3.60
2018-08-30T11:51:39.341Z,1.50
2018-08-30T11:52:39.398Z,1.70
2018-08-30T11:53:39.389Z,2.60
2018-08-30T11:54:39.354Z,1.80
2018-08-30T11:55:39.352Z,2.00
2018-08-30T11:56:39.387Z,1.80
2018-08-30T11:57:39.349Z,1.70
2018-08-30T11:58:39.389Z,1.60
2018-08-30T11:59:39.349Z,1.60
2018-08-30T12:00:39.410Z,2.00
2018-08-30T12:01:39.356Z,2.10
2018-08-30T12:02:39.395Z,1.50
2018-08-30T12:03:39.363Z,1.50
2018-08-30T12:04:39.356Z,2.20
2018-08-30T12:05:39.371Z,2.20
2018-08-30T12:06:39.359Z,2.50
2018-08-30T12:07:39.407Z,1.80
2018-08-30T12:08:39.390Z,2.00
2018-08-30T12:09:39.365Z,2.20
2018-08-30T12:10:39.439Z,3.40
2018-08-30T12:11:39.430Z,2.20
2018-08-30T12:12:39.418Z,2.60
2018-08-30T12:13:39.377Z,2.40
2018-08-30T12:14:39.368Z,3.20
2018-08-30T12:15:39.377Z,3.20
2018-08-30T12:16:39.376Z,3.60
2018-08-30T12:17:42.963Z,2.90
2018-08-30T12:18:39.413Z,3.00
2018-08-30T12:19:39.381Z,2.80
2018-08-30T12:20:39.734Z,4.50
2018-08-30T12:21:39.471Z,3.80
2018-08-30T12:22:39.665Z,4.00
2018-08-30T12:23:40.481Z,3.80
2018-08-30T12:24:41.601Z,4.30
2018-08-30T12:25:40.061Z,5.40
2018-08-30T12:26:39.426Z,4.10
2018-08-30T12:27:43.826Z,4.30
2018-08-30T12:28:39.456Z,3.10
2018-08-30T12:29:40.356Z,4.00
2018-08-30T12:30:40.512Z,6.60
2018-08-30T12:31:39.437Z,4.40
2018-08-30T12:32:39.417Z,5.20
2018-08-30T12:33:39.474Z,5.20
2018-08-30T12:34:39.448Z,5.70
2018-08-30T12:35:39.457Z,6.60
2018-08-30T12:36:39.461Z,5.90
2018-08-30T12:37:39.421Z,6.80
2018-08-30T12:38:39.468Z,7.00
2018-08-30T12:39:39.522Z,6.50
2018-08-30T12:40:40.147Z,7.10
2018-08-30T12:41:39.471Z,6.50
2018-08-30T12:42:39.485Z,6.70
2018-08-30T12:43:39.511Z,7.70
2018-08-30T12:44:40.128Z,7.00
2018-08-30T12:45:40.118Z,7.00
2018-08-30T12:46:39.475Z,6.90
2018-08-30T12:47:39.424Z,6.60
2018-08-30T12:48:39.425Z,8.00
2018-08-30T12:49:39.428Z,4.90
2018-08-30T12:50:39.585Z,8.40
2018-08-30T12:51:39.738Z,7.20
2018-08-30T12:52:39.529Z,7.80
2018-08-30T12:53:39.574Z,8.10
2018-08-30T12:54:39.561Z,8.00
2018-08-30T12:55:39.568Z,8.30
2018-08-30T12:56:39.627Z,8.10
2018-08-30T12:57:39.535Z,7.80
2018-08-30T12:58:39.441Z,8.20
2018-08-30T12:59:39.607Z,7.30
2018-08-30T13:00:39.568Z,8.10